createdAt,value
2023-04-15T00:01:03.912Z,6.50
2023-04-15T00:06:05.651Z,6.50
2023-04-15T00:11:07.207Z,6.34
2023-04-15T00:16:09.314Z,6.49
2023-04-15T00:21:10.921Z,6.40
2023-04-15T00:26:12.768Z,6.39
2023-04-15T00:31:14.485Z,6.35
2023-04-15T00:36:16.074Z,6.41
2023-04-15T00:41:19.359Z,6.29
2023-04-15T00:46:21.537Z,6.37
2023-04-15T00:51:23.554Z,6.27
2023-04-15T00:56:27.160Z,6.36
2023-04-15T01:01:29.347Z,6.27
2023-04-15T01:06:32.384Z,6.25
2023-04-15T01:11:34.840Z,6.35
2023-04-15T01:16:39.814Z,6.27
2023-04-15T01:21:41.671Z,6.31
2023-04-15T01:26:44.587Z,6.34
2023-04-15T01:31:53.866Z,6.32
2023-04-15T01:36:55.657Z,6.32
2023-04-15T01:41:57.571Z,6.29
2023-04-15T01:46:59.357Z,6.30
2023-04-15T01:52:00.959Z,6.32
2023-04-15T01:57:02.543Z,6.39
2023-04-15T02:02:04.787Z,6.44
2023-04-15T02:07:07.339Z,6.44
2023-04-15T02:12:09.461Z,6.33
2023-04-15T02:17:11.192Z,6.29
2023-04-15T02:22:18.383Z,6.38
2023-04-15T02:27:20.233Z,6.46
2023-04-15T02:32:24.447Z,6.43
2023-04-15T02:37:28.691Z,6.44
2023-04-15T02:42:31.941Z,6.37
2023-04-15T02:47:34.988Z,6.43
2023-04-15T02:52:36.604Z,6.40
2023-04-15T02:57:39.356Z,6.42
2023-04-15T03:02:42.360Z,6.47
2023-04-15T03:07:44.113Z,6.48
2023-04-15T03:12:45.792Z,6.49
2023-04-15T03:17:49.491Z,6.46
2023-04-15T03:22:51.314Z,6.49
2023-04-15T03:27:53.046Z,6.53
2023-04-15T03:32:54.776Z,6.59
2023-04-15T03:37:56.404Z,6.54
2023-04-15T03:42:57.941Z,6.52
2023-04-15T03:48:11.407Z,6.62
2023-04-15T03:53:18.008Z,6.63
2023-04-15T03:58:19.672Z,6.66
2023-04-15T04:03:21.552Z,6.59
2023-04-15T04:08:23.605Z,6.70
2023-04-15T04:13:25.394Z,6.85
2023-04-15T04:18:27.030Z,6.74
2023-04-15T04:23:28.712Z,6.80
2023-04-15T04:28:30.268Z,6.76
2023-04-15T04:33:31.850Z,6.60
2023-04-15T04:38:33.459Z,6.62
2023-04-15T04:43:35.086Z,6.62
2023-04-15T04:48:36.962Z,6.64
2023-04-15T04:53:38.549Z,6.61
2023-04-15T04:58:40.175Z,6.59
2023-04-15T05:03:41.936Z,6.45
2023-04-15T05:08:43.647Z,6.42
2023-04-15T05:13:45.457Z,6.53
2023-04-15T05:18:47.141Z,6.45
2023-04-15T05:23:48.718Z,6.59
2023-04-15T05:28:50.484Z,6.61
2023-04-15T05:33:52.103Z,6.56
2023-04-15T05:38:54.249Z,6.57
2023-04-15T05:43:56.360Z,6.55
2023-04-15T05:48:58.001Z,6.52
2023-04-15T05:53:59.584Z,6.59
2023-04-15T05:59:01.844Z,6.62
2023-04-15T06:04:03.762Z,6.62
2023-04-15T06:09:06.315Z,6.53
2023-04-15T06:14:08.360Z,6.62
2023-04-15T06:19:09.938Z,6.51
2023-04-15T06:24:12.049Z,6.59
2023-04-15T06:29:13.699Z,6.63
2023-04-15T06:34:15.282Z,6.71
2023-04-15T06:39:17.094Z,6.63
2023-04-15T06:44:18.832Z,6.67
2023-04-15T06:49:20.381Z,6.68
2023-04-15T06:54:22.059Z,6.64
2023-04-15T06:59:24.222Z,6.46
2023-04-15T07:04:25.881Z,6.70
2023-04-15T07:09:27.543Z,6.72
2023-04-15T07:14:29.576Z,6.76
2023-04-15T07:19:31.288Z,6.79
2023-04-15T07:24:32.879Z,6.78
2023-04-15T07:29:34.468Z,6.73
2023-04-15T07:34:36.561Z,6.78
2023-04-15T07:39:38.181Z,6.81
2023-04-15T07:44:39.826Z,6.76
2023-04-15T07:49:41.987Z,6.75
2023-04-15T07:54:43.620Z,6.77
2023-04-15T07:59:45.604Z,6.82
2023-04-15T08:04:47.939Z,6.92
2023-04-15T08:09:49.709Z,6.93
2023-04-15T08:14:52.253Z,6.94
2023-04-15T08:19:54.249Z,6.90
2023-04-15T08:24:55.856Z,6.97
2023-04-15T08:29:57.478Z,7.00
2023-04-15T08:34:59.310Z,7.05
2023-04-15T08:40:01.025Z,6.99
2023-04-15T08:45:05.330Z,7.03
2023-04-15T08:50:09.832Z,6.99
2023-04-15T08:55:13.784Z,7.04
2023-04-15T09:00:15.985Z,7.05
2023-04-15T09:05:17.774Z,7.08
2023-04-15T09:10:19.409Z,7.07
2023-04-15T09:15:21.359Z,7.10
2023-04-15T09:20:23.190Z,7.14
2023-04-15T09:25:29.146Z,7.15
2023-04-15T09:30:31.389Z,7.17
2023-04-15T09:35:33.174Z,7.28
2023-04-15T09:40:37.308Z,7.23
2023-04-15T09:45:38.999Z,7.28
2023-04-15T09:50:44.280Z,7.30
2023-04-15T09:55:49.759Z,7.29
2023-04-15T10:00:52.960Z,7.39
2023-04-15T10:05:57.278Z,7.40
2023-04-15T10:11:00.818Z,7.35
2023-04-15T10:16:14.489Z,7.51
2023-04-15T10:21:18.768Z,7.50
2023-04-15T10:26:20.934Z,7.62
2023-04-15T10:31:23.464Z,7.71
2023-04-15T10:36:25.506Z,7.64
2023-04-15T10:41:31.296Z,7.71
2023-04-15T10:46:38.723Z,7.74
2023-04-15T10:51:43.215Z,7.69
2023-04-15T10:56:45.576Z,7.85
2023-04-15T11:02:00.711Z,7.99
2023-04-15T11:07:06.837Z,8.09
2023-04-15T11:12:10.010Z,8.03
2023-04-15T11:17:11.775Z,8.18
2023-04-15T11:22:13.525Z,8.17
2023-04-15T11:27:23.437Z,8.24
2023-04-15T11:32:25.073Z,8.17
2023-04-15T11:37:30.420Z,8.27
2023-04-15T11:42:46.464Z,8.44
2023-04-15T11:47:51.027Z,8.38
2023-04-15T11:52:57.286Z,8.48
2023-04-15T11:58:11.427Z,8.61
2023-04-15T12:03:13.936Z,8.65
2023-04-15T12:08:15.673Z,8.46
2023-04-15T12:13:17.507Z,8.90
2023-04-15T12:18:19.875Z,8.69
2023-04-15T12:23:21.689Z,8.90
2023-04-15T12:28:23.292Z,8.84
2023-04-15T12:33:33.717Z,9.05
2023-04-15T12:38:35.591Z,9.24
2023-04-15T12:43:37.748Z,9.36
2023-04-15T12:48:40.628Z,9.54
2023-04-15T12:53:42.325Z,9.41
2023-04-15T12:58:43.956Z,9.60
2023-04-15T13:03:45.860Z,9.53
2023-04-15T13:08:57.170Z,9.61
2023-04-15T13:14:02.384Z,9.47
2023-04-15T13:19:04.419Z,9.57
2023-04-15T13:24:07.475Z,9.42
2023-04-15T13:29:09.423Z,9.64
2023-04-15T13:34:11.249Z,9.57
2023-04-15T13:39:12.881Z,9.55
2023-04-15T13:44:14.778Z,9.52
2023-04-15T13:49:16.428Z,9.56
2023-04-15T13:54:18.129Z,9.52
2023-04-15T13:59:19.712Z,9.52
2023-04-15T14:04:21.582Z,9.53
2023-04-15T14:09:26.289Z,9.33
2023-04-15T14:14:28.091Z,9.47
2023-04-15T14:19:31.323Z,9.57
2023-04-15T14:24:33.116Z,9.52
2023-04-15T14:29:34.914Z,9.29
2023-04-15T14:34:36.668Z,9.24
2023-04-15T14:39:38.450Z,9.25
2023-04-15T14:44:40.025Z,9.25
2023-04-15T14:49:41.705Z,9.38
2023-04-15T14:54:43.708Z,9.30
2023-04-15T14:59:45.614Z,9.24
2023-04-15T15:04:47.423Z,9.26
2023-04-15T15:09:49.084Z,9.11
2023-04-15T15:14:50.989Z,9.33
2023-04-15T15:19:53.262Z,8.99
2023-04-15T15:24:55.087Z,9.44
2023-04-15T15:29:56.908Z,9.18
2023-04-15T15:34:58.635Z,9.30
2023-04-15T15:40:00.992Z,9.28
2023-04-15T15:45:04.516Z,8.99
2023-04-15T15:50:07.759Z,9.23
2023-04-15T15:55:12.201Z,9.11
2023-04-15T16:00:14.440Z,8.96
2023-04-15T16:05:16.239Z,8.92
2023-04-15T16:10:17.803Z,8.84
2023-04-15T16:15:19.512Z,8.83
2023-04-15T16:20:21.121Z,8.76
2023-04-15T16:25:22.957Z,8.79
2023-04-15T16:30:24.796Z,8.97
2023-04-15T16:35:26.750Z,8.86
2023-04-15T16:40:28.522Z,8.74
2023-04-15T16:45:30.573Z,8.68
2023-04-15T16:50:32.798Z,8.77
2023-04-15T16:55:34.585Z,8.65
2023-04-15T17:00:37.006Z,8.53
2023-04-15T17:05:39.266Z,8.50
2023-04-15T17:10:41.673Z,8.57
2023-04-15T17:15:43.460Z,8.49
2023-04-15T17:20:45.106Z,8.40
2023-04-15T17:25:48.308Z,8.36
2023-04-15T17:30:50.391Z,8.37
2023-04-15T17:35:52.396Z,8.30
2023-04-15T17:40:54.422Z,8.29
2023-04-15T17:45:58.499Z,8.40
2023-04-15T17:51:00.478Z,8.31
2023-04-15T17:56:03.228Z,8.24
2023-04-15T18:01:05.455Z,8.19
2023-04-15T18:06:07.926Z,8.14
2023-04-15T18:11:12.597Z,8.20
2023-04-15T18:16:15.073Z,8.20
2023-04-15T18:21:17.341Z,8.18
2023-04-15T18:26:19.832Z,8.09
2023-04-15T18:31:21.692Z,8.20
2023-04-15T18:36:24.517Z,8.17
2023-04-15T18:41:26.857Z,8.11
2023-04-15T18:46:29.328Z,8.12
2023-04-15T18:51:34.621Z,8.10
2023-04-15T18:56:36.955Z,8.10
2023-04-15T19:01:39.398Z,8.05
2023-04-15T19:06:41.443Z,8.06
2023-04-15T19:11:44.309Z,8.05
2023-04-15T19:16:46.549Z,8.03
2023-04-15T19:21:55.028Z,8.02
2023-04-15T19:26:58.238Z,7.94
2023-04-15T19:32:00.980Z,8.00
2023-04-15T19:37:03.368Z,8.04
2023-04-15T19:42:05.854Z,7.93
2023-04-15T19:47:08.414Z,7.86
2023-04-15T19:52:10.597Z,7.85
2023-04-15T19:57:13.700Z,7.85
2023-04-15T20:02:15.846Z,7.75
2023-04-15T20:07:18.696Z,7.78
2023-04-15T20:12:49.871Z,7.82
2023-04-15T20:17:44.779Z,7.74
2023-04-15T20:22:47.182Z,7.81
2023-04-15T20:27:49.466Z,7.53
2023-04-15T20:32:52.034Z,7.67
2023-04-15T20:37:54.915Z,7.62
2023-04-15T20:42:56.694Z,7.68
2023-04-15T20:47:58.787Z,7.60
2023-04-15T20:53:00.779Z,7.67
2023-04-15T20:58:02.549Z,7.61
2023-04-15T21:03:04.363Z,7.58
2023-04-15T21:08:07.719Z,7.57
2023-04-15T21:13:09.803Z,7.46
2023-04-15T21:18:11.436Z,7.52
2023-04-15T21:23:13.359Z,7.55
2023-04-15T21:28:15.015Z,7.49
2023-04-15T21:33:17.836Z,7.47
2023-04-15T21:38:21.324Z,7.43
2023-04-15T21:43:25.806Z,7.49
2023-04-15T21:48:27.417Z,7.41
2023-04-15T21:53:29.002Z,7.37
2023-04-15T21:58:30.611Z,7.36
2023-04-15T22:03:34.423Z,7.33
2023-04-15T22:08:48.135Z,7.31
2023-04-15T22:13:54.789Z,7.25
2023-04-15T22:18:56.493Z,7.26
2023-04-15T22:24:31.688Z,7.25
2023-04-15T22:29:20.898Z,7.21
2023-04-15T22:34:23.008Z,7.22
2023-04-15T22:39:24.586Z,7.24
2023-04-15T22:44:26.239Z,7.13
2023-04-15T22:49:27.856Z,7.22
2023-04-15T22:54:29.417Z,7.11
2023-04-15T22:59:30.977Z,7.09
2023-04-15T23:04:32.704Z,7.14
2023-04-15T23:09:34.465Z,7.17
2023-04-15T23:14:36.012Z,7.11
2023-04-15T23:19:37.564Z,7.11
2023-04-15T23:24:39.144Z,7.09
2023-04-15T23:29:40.896Z,7.09
2023-04-15T23:34:42.495Z,7.01
2023-04-15T23:39:44.503Z,7.04
2023-04-15T23:44:46.515Z,7.11
2023-04-15T23:49:48.158Z,7.10
2023-04-15T23:54:49.718Z,7.07
2023-04-15T23:59:51.308Z,7.00
